Time;durP1;ratioP1;P1;durP2;ratioP2;P2;SDS_P1;SDS_P2;PMS_P1;PMS_P2;Temp;Humidity;BMP_temperature;BMP_pressure;BME280_temperature;BME280_humidity;BME280_pressure;Samples;Min_cycle;Max_cycle;Signal;HPM_P1;HPM_P2
2021/08/18 00:03:59;;;;;;;15.50;13.57;;;17.20;99.90;;;;;;10526040;28;20212;-83
2021/08/18 00:09:03;;;;;;;17.03;13.43;;;17.30;99.90;;;;;;10505896;28;20632;-83
2021/08/18 00:14:06;;;;;;;16.57;13.77;;;17.30;99.90;;;;;;10504766;28;20184;-83
2021/08/18 00:19:08;;;;;;;14.60;12.73;;;17.30;99.90;;;;;;10505352;28;20230;-83
2021/08/18 00:24:14;;;;;;;21.17;15.17;;;17.40;99.90;;;;;;10523160;28;20604;-83
2021/08/18 00:29:20;;;;;;;20.53;14.20;;;17.40;99.90;;;;;;10507367;28;20223;-83
2021/08/18 00:34:22;;;;;;;18.63;12.97;;;17.30;99.90;;;;;;10506879;28;20192;-83
2021/08/18 00:39:26;;;;;;;18.20;14.20;;;17.40;99.90;;;;;;10508855;28;20223;-83
2021/08/18 00:44:28;;;;;;;17.67;12.90;;;17.40;99.90;;;;;;10508713;28;20208;-82
2021/08/18 00:49:31;;;;;;;16.63;13.80;;;17.40;99.90;;;;;;10504326;28;20224;-83
2021/08/18 00:54:34;;;;;;;16.80;13.83;;;17.40;99.90;;;;;;10505499;28;20394;-84
2021/08/18 00:59:37;;;;;;;15.93;14.07;;;17.50;99.90;;;;;;10502576;28;20301;-83
2021/08/18 01:04:40;;;;;;;15.23;12.97;;;17.50;99.90;;;;;;10517339;28;20208;-83
2021/08/18 01:09:45;;;;;;;16.53;14.60;;;17.40;99.90;;;;;;10504115;28;20695;-83
2021/08/18 01:14:48;;;;;;;16.03;13.27;;;17.40;99.90;;;;;;10521724;28;20223;-84
2021/08/18 01:19:50;;;;;;;17.50;13.87;;;17.50;99.90;;;;;;10505001;28;20218;-84
2021/08/18 01:24:54;;;;;;;19.00;14.63;;;17.50;99.90;;;;;;10517020;28;20217;-83
2021/08/18 01:30:00;;;;;;;14.77;11.80;;;17.50;99.90;;;;;;10520513;28;20617;-85
2021/08/18 01:35:02;;;;;;;15.97;13.77;;;17.50;99.90;;;;;;10525494;28;20585;-83
2021/08/18 01:40:06;;;;;;;20.80;14.37;;;17.60;99.90;;;;;;10534864;28;20208;-83
2021/08/18 01:45:12;;;;;;;19.50;14.93;;;17.60;99.90;;;;;;10520466;28;20207;-82
2021/08/18 01:50:14;;;;;;;16.67;14.87;;;17.60;99.90;;;;;;10519856;28;20223;-83
2021/08/18 01:55:17;;;;;;;18.63;15.47;;;17.50;99.90;;;;;;10502655;28;20188;-83
2021/08/18 02:00:23;;;;;;;19.70;14.87;;;17.50;99.90;;;;;;10503397;28;20207;-83
2021/08/18 02:05:26;;;;;;;16.60;13.97;;;17.50;99.90;;;;;;10502573;28;20306;-83
2021/08/18 02:10:28;;;;;;;17.17;15.03;;;17.50;99.90;;;;;;10503107;28;20219;-83
2021/08/18 02:15:34;;;;;;;15.57;13.37;;;17.50;99.90;;;;;;10524571;28;20556;-84
2021/08/18 02:20:40;;;;;;;18.13;14.60;;;17.50;99.90;;;;;;10512299;28;20770;-83
2021/08/18 02:25:43;;;;;;;15.90;13.83;;;17.50;99.90;;;;;;10528279;28;20204;-84
2021/08/18 02:30:47;;;;;;;17.53;13.90;;;17.60;99.90;;;;;;10532753;28;20265;-83
2021/08/18 02:35:50;;;;;;;16.80;14.47;;;17.60;99.90;;;;;;10509817;28;20303;-82
2021/08/18 02:40:52;;;;;;;16.17;13.93;;;17.60;99.90;;;;;;10526536;28;20241;-83
2021/08/18 02:45:55;;;;;;;16.57;13.87;;;17.60;99.90;;;;;;10531931;28;20231;-83
2021/08/18 02:50:58;;;;;;;16.53;13.77;;;17.60;99.90;;;;;;10547045;28;20199;-82
2021/08/18 02:56:00;;;;;;;14.67;13.03;;;17.60;99.90;;;;;;10507942;28;20286;-83
2021/08/18 03:01:04;;;;;;;17.77;13.17;;;17.60;99.90;;;;;;10542464;28;20347;-82
2021/08/18 03:06:06;;;;;;;16.67;14.60;;;17.60;99.90;;;;;;10543055;28;20273;-82
2021/08/18 03:11:08;;;;;;;16.37;14.37;;;17.60;99.90;;;;;;10541898;28;20176;-82
2021/08/18 03:16:12;;;;;;;14.57;13.03;;;17.60;99.90;;;;;;10507016;28;20282;-82
2021/08/18 03:21:14;;;;;;;15.20;13.40;;;17.60;99.90;;;;;;10523100;28;20206;-82
2021/08/18 03:26:19;;;;;;;16.20;14.00;;;17.60;99.90;;;;;;10522425;28;20698;-83
2021/08/18 03:31:23;;;;;;;15.17;12.63;;;17.60;99.90;;;;;;10505999;28;20290;-84
2021/08/18 03:36:26;;;;;;;13.10;11.80;;;17.60;99.90;;;;;;10541871;28;20207;-84
2021/08/18 03:41:28;;;;;;;17.13;12.90;;;17.60;99.90;;;;;;10507865;28;20693;-83
2021/08/18 03:46:32;;;;;;;13.37;12.03;;;17.60;99.90;;;;;;10543932;28;20588;-83
2021/08/18 03:51:34;;;;;;;13.43;12.03;;;17.60;99.90;;;;;;10544580;28;20211;-83
2021/08/18 03:56:36;;;;;;;13.53;11.67;;;17.60;99.90;;;;;;10508959;28;20758;-83
2021/08/18 04:01:39;;;;;;;12.53;11.33;;;17.60;99.90;;;;;;10509739;28;20631;-83
2021/08/18 04:06:45;;;;;;;13.70;12.00;;;17.50;99.90;;;;;;10527514;28;20664;-83
2021/08/18 04:11:49;;;;;;;12.53;10.53;;;17.50;99.90;;;;;;10528116;28;20195;-83
2021/08/18 04:16:53;;;;;;;12.37;10.00;;;17.50;99.90;;;;;;10546239;28;20232;-84
2021/08/18 04:21:55;;;;;;;11.20;10.10;;;17.50;99.90;;;;;;10511111;28;20311;-83
2021/08/18 04:26:57;;;;;;;12.57;10.20;;;17.50;99.90;;;;;;10529552;28;20224;-84
2021/08/18 04:32:01;;;;;;;11.23;10.10;;;17.50;99.90;;;;;;10530971;28;20652;-83
2021/08/18 04:37:03;;;;;;;10.80;9.70;;;17.50;99.90;;;;;;10541322;28;20212;-83
2021/08/18 04:42:05;;;;;;;9.37;8.37;;;17.50;99.90;;;;;;10529225;28;20456;-83
2021/08/18 04:47:09;;;;;;;9.67;8.67;;;17.60;99.90;;;;;;10519954;28;20522;-83
2021/08/18 04:52:13;;;;;;;10.90;9.30;;;17.60;99.90;;;;;;10521133;28;20258;-83
2021/08/18 04:57:15;;;;;;;10.07;9.07;;;17.60;99.90;;;;;;10503235;28;20230;-83
2021/08/18 05:02:19;;;;;;;12.40;10.40;;;17.60;99.90;;;;;;10502992;28;20216;-83
2021/08/18 05:07:21;;;;;;;10.37;9.20;;;17.60;99.90;;;;;;10503279;28;20227;-83
2021/08/18 05:12:24;;;;;;;9.73;8.87;;;17.70;99.90;;;;;;10503084;28;20282;-84
2021/08/18 05:17:27;;;;;;;10.00;9.00;;;17.70;99.90;;;;;;10502658;28;20215;-83
2021/08/18 05:22:30;;;;;;;8.67;7.87;;;17.70;99.90;;;;;;10519129;28;20318;-83
2021/08/18 05:27:32;;;;;;;11.13;8.07;;;17.70;99.90;;;;;;10466471;28;20519;-83
2021/08/18 05:32:36;;;;;;;8.73;7.83;;;17.70;99.90;;;;;;10477577;28;20189;-84
2021/08/18 05:37:38;;;;;;;10.43;8.40;;;17.70;99.90;;;;;;10480334;28;20269;-83
2021/08/18 05:42:41;;;;;;;9.87;8.97;;;17.80;99.90;;;;;;10463567;28;20213;-83
2021/08/18 05:47:44;;;;;;;10.00;8.07;;;17.80;99.90;;;;;;10493032;22;20312;-83
2021/08/18 05:52:46;;;;;;;7.87;7.07;;;17.80;99.90;;;;;;10523626;28;20583;-82
2021/08/18 05:57:48;;;;;;;8.80;7.77;;;17.90;99.90;;;;;;10489986;28;20224;-82
2021/08/18 06:02:52;;;;;;;10.33;6.60;;;17.90;99.90;;;;;;10480361;28;20212;-82
2021/08/18 06:07:54;;;;;;;8.30;6.93;;;17.90;99.90;;;;;;10479762;28;20227;-82
2021/08/18 06:12:56;;;;;;;6.87;6.27;;;17.90;99.90;;;;;;10463959;28;20211;-82
2021/08/18 06:18:00;;;;;;;10.33;5.80;;;17.90;99.90;;;;;;10464906;28;20232;-82
2021/08/18 06:23:02;;;;;;;7.37;6.67;;;18.10;99.90;;;;;;10461401;28;20220;-82
2021/08/18 06:28:05;;;;;;;6.30;5.70;;;18.20;99.90;;;;;;10438423;28;20221;-82
2021/08/18 06:33:08;;;;;;;7.37;6.70;;;18.30;99.90;;;;;;10420129;28;20574;-82
2021/08/18 06:38:10;;;;;;;7.73;6.90;;;18.40;99.90;;;;;;10420280;28;20217;-82
2021/08/18 06:43:12;;;;;;;7.83;6.77;;;18.40;99.90;;;;;;10454237;28;20212;-82
2021/08/18 06:48:16;;;;;;;8.80;6.80;;;18.30;99.90;;;;;;10423531;28;20312;-83
2021/08/18 06:53:18;;;;;;;7.53;6.83;;;18.30;99.90;;;;;;10421697;28;20212;-82
2021/08/18 06:58:20;;;;;;;7.67;6.97;;;18.30;99.90;;;;;;10497925;28;20213;-83
2021/08/18 07:03:23;;;;;;;7.80;7.07;;;18.40;99.90;;;;;;10485235;28;20216;-83
2021/08/18 07:08:26;;;;;;;7.77;7.17;;;18.50;99.90;;;;;;10503353;28;20568;-83
2021/08/18 07:13:28;;;;;;;6.90;6.30;;;18.50;99.90;;;;;;10470633;28;20203;-82
2021/08/18 07:18:31;;;;;;;7.60;6.90;;;18.50;99.90;;;;;;10485975;28;20303;-82
2021/08/18 07:23:34;;;;;;;10.00;5.67;;;18.60;99.90;;;;;;10484012;28;20311;-82
2021/08/18 07:28:36;;;;;;;6.70;6.10;;;18.70;99.90;;;;;;10482522;28;20283;-82
2021/08/18 07:33:39;;;;;;;6.50;5.73;;;19.00;99.90;;;;;;10466256;28;20196;-81
2021/08/18 07:38:41;;;;;;;6.03;5.53;;;19.10;99.90;;;;;;10483386;28;20227;-82
2021/08/18 07:43:44;;;;;;;5.73;5.20;;;19.20;99.90;;;;;;10482654;28;20213;-83
2021/08/18 07:48:47;;;;;;;4.37;4.07;;;19.50;99.90;;;;;;10483527;28;20219;-82
2021/08/18 07:53:49;;;;;;;4.67;4.27;;;19.80;99.90;;;;;;10484770;28;20184;-82
2021/08/18 07:58:51;;;;;;;4.30;4.00;;;20.30;99.90;;;;;;10465789;28;20229;-82
2021/08/18 08:03:55;;;;;;;4.70;3.97;;;20.50;99.90;;;;;;10482434;28;20217;-82
2021/08/18 08:08:57;;;;;;;3.83;3.57;;;20.70;99.90;;;;;;10501421;28;20235;-83
2021/08/18 08:13:59;;;;;;;3.80;3.50;;;20.90;99.90;;;;;;10481823;28;20195;-82
2021/08/18 08:19:03;;;;;;;2.90;2.70;;;20.90;99.90;;;;;;10467984;28;20255;-84
2021/08/18 08:24:05;;;;;;;3.00;2.70;;;20.70;99.90;;;;;;10486437;28;20790;-83
2021/08/18 08:29:07;;;;;;;2.10;2.00;;;20.60;99.90;;;;;;10476556;28;20231;-84
2021/08/18 08:34:13;;;;;;;2.10;2.00;;;20.50;99.90;;;;;;10469917;28;20280;-83
2021/08/18 08:39:15;;;;;;;2.03;1.93;;;20.50;99.90;;;;;;10493116;28;20213;-83
2021/08/18 08:44:18;;;;;;;1.80;1.70;;;20.50;99.90;;;;;;10454265;28;20209;-84
2021/08/18 08:49:23;;;;;;;2.70;2.50;;;20.30;99.90;;;;;;10447018;28;20220;-83
2021/08/18 08:54:25;;;;;;;1.87;1.77;;;20.20;99.90;;;;;;10452936;28;20568;-81
2021/08/18 08:59:27;;;;;;;2.33;2.23;;;20.10;99.90;;;;;;10490728;28;20299;-83
2021/08/18 09:04:33;;;;;;;2.20;2.00;;;20.00;99.90;;;;;;10490596;28;20220;-82
2021/08/18 09:09:36;;;;;;;10.93;2.40;;;20.10;99.90;;;;;;10491945;28;20277;-82
2021/08/18 09:14:39;;;;;;;2.00;1.90;;;20.20;99.90;;;;;;10473163;28;20235;-83
2021/08/18 09:19:43;;;;;;;1.97;1.87;;;20.20;99.90;;;;;;10507212;28;20227;-84
2021/08/18 09:24:46;;;;;;;2.00;1.90;;;20.20;99.90;;;;;;10511967;28;20235;-82
2021/08/18 09:29:48;;;;;;;7.10;2.70;;;20.10;99.90;;;;;;10481599;28;20237;-83
2021/08/18 09:34:53;;;;;;;1.90;1.80;;;20.10;99.90;;;;;;10522668;28;20188;-83
2021/08/18 09:39:56;;;;;;;1.37;1.37;;;20.00;99.90;;;;;;10505705;28;20808;-83
2021/08/18 09:45:27;;;;;;;1.60;1.53;;;20.00;99.90;;;;;;10505096;28;20220;-83
2021/08/18 09:50:41;;;;;;;1.70;1.60;;;20.00;99.90;;;;;;10449462;28;20226;-83
2021/08/18 09:55:54;;;;;;;1.47;1.47;;;20.10;99.90;;;;;;10507013;28;20188;-82
2021/08/18 10:00:57;;;;;;;1.60;1.50;;;20.40;99.90;;;;;;10478744;28;20304;-83
2021/08/18 10:06:02;;;;;;;1.60;1.50;;;20.70;99.90;;;;;;10491128;28;20310;-82
2021/08/18 10:11:05;;;;;;;1.60;1.50;;;20.90;99.90;;;;;;10539299;28;20278;-83
2021/08/18 10:16:08;;;;;;;1.20;1.20;;;21.10;99.90;;;;;;10519750;28;20187;-83
2021/08/18 10:21:17;;;;;;;1.30;1.30;;;21.40;99.90;;;;;;10538706;28;20222;-83
2021/08/18 10:26:53;;;;;;;1.73;1.63;;;21.70;99.90;;;;;;10519310;28;20208;-83
2021/08/18 10:32:03;;;;;;;1.40;1.40;;;21.70;99.90;;;;;;10461963;28;20200;-82
2021/08/18 10:37:18;;;;;;;1.50;1.40;;;21.40;99.90;;;;;;10499115;28;20200;-83
2021/08/18 10:42:41;;;;;;;1.80;1.70;;;21.20;99.90;;;;;;10484632;28;20222;-83
2021/08/18 10:47:43;;;;;;;2.10;2.00;;;20.90;99.90;;;;;;10468254;28;20240;-82
2021/08/18 10:52:50;;;;;;;1.30;1.20;;;20.80;99.90;;;;;;10496309;28;20687;-83
2021/08/18 10:57:52;;;;;;;2.10;2.00;;;20.90;99.90;;;;;;10462258;28;20220;-82
2021/08/18 11:03:01;;;;;;;2.17;1.90;;;21.10;99.90;;;;;;10482543;28;20201;-82
2021/08/18 11:08:06;;;;;;;2.00;1.90;;;21.40;99.90;;;;;;10469514;28;20220;-82
2021/08/18 11:13:09;;;;;;;2.27;2.17;;;21.50;99.90;;;;;;10483844;28;20194;-82
2021/08/18 11:18:12;;;;;;;41.70;3.70;;;21.50;99.90;;;;;;10466141;28;20292;-81
2021/08/18 11:23:15;;;;;;;1.73;1.63;;;21.30;99.90;;;;;;10467115;28;20301;-82
2021/08/18 11:28:22;;;;;;;2.27;2.17;;;21.10;99.90;;;;;;10451203;28;20221;-82
2021/08/18 11:33:24;;;;;;;2.60;2.50;;;20.90;99.90;;;;;;10462181;28;20567;-82
2021/08/18 11:38:29;;;;;;;2.00;1.83;;;20.70;99.90;;;;;;10465880;28;20221;-81
2021/08/18 11:43:42;;;;;;;2.60;2.50;;;20.60;99.90;;;;;;10489388;28;20217;-81
2021/08/18 11:48:45;;;;;;;2.20;2.10;;;20.70;99.90;;;;;;10464375;28;20769;-82
2021/08/18 11:53:55;;;;;;;2.10;2.00;;;20.90;99.90;;;;;;10449640;28;20560;-82
2021/08/18 11:59:00;;;;;;;2.33;2.23;;;21.00;99.90;;;;;;10494535;28;20217;-82
2021/08/18 12:04:04;;;;;;;3.40;3.20;;;21.10;99.90;;;;;;10477314;28;20586;-82
2021/08/18 12:09:21;;;;;;;2.40;2.30;;;21.20;99.90;;;;;;10494239;28;20475;-82
2021/08/18 12:14:27;;;;;;;2.17;2.07;;;21.40;99.90;;;;;;10476676;28;20188;-82
2021/08/18 12:19:29;;;;;;;2.80;2.70;;;21.60;99.90;;;;;;10512368;28;20688;-82
2021/08/18 12:24:34;;;;;;;2.37;2.27;;;21.80;99.90;;;;;;10474038;28;20247;-83
2021/08/18 12:29:38;;;;;;;2.73;2.53;;;21.80;99.90;;;;;;10456842;28;20213;-83
2021/08/18 12:34:43;;;;;;;2.30;2.20;;;21.70;99.90;;;;;;10500776;28;20556;-82
2021/08/18 12:39:54;;;;;;;1.90;1.80;;;21.80;99.90;;;;;;10478167;28;20294;-82
2021/08/18 12:45:01;;;;;;;2.00;1.90;;;22.00;99.90;;;;;;10493876;28;20252;-83
2021/08/18 12:50:06;;;;;;;1.50;1.40;;;22.20;99.90;;;;;;10513974;28;20248;-82
2021/08/18 12:55:12;;;;;;;1.80;1.70;;;22.40;99.90;;;;;;10504976;28;20225;-82
2021/08/18 13:00:14;;;;;;;2.80;1.80;;;22.60;99.90;;;;;;10469012;28;20213;-83
2021/08/18 13:05:16;;;;;;;1.70;1.60;;;22.60;99.90;;;;;;10449064;28;20220;-82
2021/08/18 13:10:20;;;;;;;1.57;1.57;;;22.60;99.90;;;;;;10475267;28;20880;-83
2021/08/18 13:15:23;;;;;;;1.63;1.53;;;22.60;99.90;;;;;;10488600;28;20192;-83
2021/08/18 13:20:25;;;;;;;1.70;1.60;;;22.40;99.90;;;;;;10456467;28;20634;-82
2021/08/18 13:25:28;;;;;;;2.13;1.80;;;22.30;99.90;;;;;;10489750;28;20272;-83
2021/08/18 13:30:30;;;;;;;3.93;2.20;;;22.30;99.90;;;;;;10486904;28;20233;-83
2021/08/18 13:35:33;;;;;;;1.97;1.83;;;22.40;99.90;;;;;;10534996;28;20194;-83
2021/08/18 13:40:37;;;;;;;2.07;1.97;;;22.40;99.90;;;;;;10535317;28;20212;-83
2021/08/18 13:45:39;;;;;;;2.00;1.90;;;22.40;99.90;;;;;;10531892;28;20208;-82
2021/08/18 13:50:41;;;;;;;1.50;1.50;;;22.30;99.90;;;;;;10517135;28;20231;-82
2021/08/18 13:55:45;;;;;;;1.87;1.77;;;22.40;99.90;;;;;;10533094;28;20652;-83
2021/08/18 14:00:47;;;;;;;1.80;1.70;;;22.50;99.90;;;;;;10468952;28;20212;-83
2021/08/18 14:05:49;;;;;;;2.20;2.10;;;22.50;99.90;;;;;;10470044;28;20233;-83
2021/08/18 14:10:53;;;;;;;2.13;2.03;;;22.50;99.90;;;;;;10491827;28;20212;-83
2021/08/18 14:15:55;;;;;;;2.03;1.83;;;22.50;99.90;;;;;;10513989;28;20592;-83
2021/08/18 14:20:58;;;;;;;1.97;1.87;;;22.50;99.90;;;;;;10497534;28;20667;-83
2021/08/18 14:26:04;;;;;;;2.47;1.90;;;22.50;99.90;;;;;;10493529;28;20219;-82
2021/08/18 14:31:06;;;;;;;2.10;2.00;;;22.50;99.90;;;;;;10506511;28;20245;-82
2021/08/18 14:36:08;;;;;;;2.00;1.47;;;22.50;99.90;;;;;;10534060;28;20188;-82
2021/08/18 14:41:12;;;;;;;2.17;2.07;;;22.50;99.90;;;;;;10533281;28;20282;-82
2021/08/18 14:46:14;;;;;;;2.30;2.20;;;22.60;99.90;;;;;;10516242;28;20234;-83
2021/08/18 14:51:18;;;;;;;2.30;2.20;;;22.60;99.90;;;;;;10534516;28;20192;-84
2021/08/18 14:56:26;;;;;;;2.47;2.37;;;22.50;99.90;;;;;;10558613;28;20192;-81
2021/08/18 15:01:32;;;;;;;2.80;2.60;;;22.30;99.90;;;;;;10502127;28;20205;-81
2021/08/18 15:06:34;;;;;;;1.60;1.50;;;22.20;99.90;;;;;;10491727;28;20229;-83
2021/08/18 15:11:37;;;;;;;1.80;1.70;;;22.10;99.90;;;;;;10511597;28;20195;-82
2021/08/18 15:16:40;;;;;;;1.60;1.50;;;22.10;99.90;;;;;;10511756;28;20215;-82
2021/08/18 15:21:43;;;;;;;2.40;2.20;;;22.20;99.90;;;;;;10493579;28;20197;-82
2021/08/18 15:26:46;;;;;;;2.40;2.30;;;22.20;99.90;;;;;;10476497;28;20228;-83
2021/08/18 15:31:48;;;;;;;2.00;1.90;;;22.20;99.90;;;;;;10514685;28;20670;-83
2021/08/18 15:36:50;;;;;;;2.10;2.00;;;22.10;99.90;;;;;;10537966;28;20653;-82
2021/08/18 15:41:54;;;;;;;2.57;2.17;;;21.90;99.90;;;;;;10551770;28;20279;-82
2021/08/18 15:46:57;;;;;;;1.93;1.80;;;21.90;99.90;;;;;;10533390;28;20315;-82
2021/08/18 15:51:59;;;;;;;2.07;1.97;;;21.80;99.90;;;;;;10532979;28;20241;-82
2021/08/18 15:57:03;;;;;;;2.40;2.30;;;21.80;99.90;;;;;;10505543;28;20232;-83
2021/08/18 16:02:06;;;;;;;2.10;2.00;;;21.90;99.90;;;;;;10489155;28;20197;-82
2021/08/18 16:07:13;;;;;;;2.20;2.10;;;21.90;99.90;;;;;;10496461;28;20223;-83
2021/08/18 16:12:17;;;;;;;1.93;1.83;;;22.00;99.90;;;;;;10481088;28;20262;-83
2021/08/18 16:17:19;;;;;;;2.37;2.27;;;22.10;99.90;;;;;;10473122;28;20240;-83
2021/08/18 16:22:22;;;;;;;1.63;1.63;;;22.10;99.90;;;;;;10485785;28;20192;-83
2021/08/18 16:27:25;;;;;;;2.83;2.37;;;21.90;99.90;;;;;;10442062;28;20308;-82
2021/08/18 16:32:28;;;;;;;2.20;2.00;;;21.80;99.90;;;;;;10513520;28;20195;-83
2021/08/18 16:37:30;;;;;;;2.50;2.30;;;21.80;99.90;;;;;;10547504;28;20269;-82
2021/08/18 16:42:33;;;;;;;3.30;2.47;;;21.80;99.90;;;;;;10526545;28;20203;-82
2021/08/18 16:47:36;;;;;;;2.37;2.27;;;21.80;99.90;;;;;;10503739;28;20224;-83
2021/08/18 16:52:38;;;;;;;2.10;2.00;;;21.70;99.90;;;;;;10468797;28;20198;-82
2021/08/18 16:57:42;;;;;;;2.00;1.90;;;21.60;99.90;;;;;;10501113;28;20247;-82
2021/08/18 17:02:44;;;;;;;2.50;2.00;;;21.60;99.90;;;;;;10468531;28;20197;-82
2021/08/18 17:07:46;;;;;;;2.03;1.93;;;21.60;99.90;;;;;;10483075;28;20231;-82
2021/08/18 17:12:50;;;;;;;2.43;2.23;;;21.60;99.90;;;;;;10469392;28;20189;-82
2021/08/18 17:17:52;;;;;;;2.20;2.10;;;21.50;99.90;;;;;;10445375;28;20293;-82
2021/08/18 17:22:56;;;;;;;2.43;2.33;;;21.50;99.90;;;;;;10425746;28;20197;-82
2021/08/18 17:28:00;;;;;;;2.73;2.47;;;21.50;99.90;;;;;;10490710;28;20217;-83
2021/08/18 17:33:02;;;;;;;2.80;2.60;;;21.50;99.90;;;;;;10513824;28;20283;-82
2021/08/18 17:38:04;;;;;;;2.63;2.50;;;21.40;99.90;;;;;;10507991;28;20212;-82
2021/08/18 17:43:08;;;;;;;2.60;2.40;;;21.40;99.90;;;;;;10509103;28;20257;-83
2021/08/18 17:48:10;;;;;;;2.03;1.93;;;21.30;99.90;;;;;;10526267;28;20262;-82
2021/08/18 17:53:12;;;;;;;2.60;2.50;;;21.30;99.90;;;;;;10510412;28;20675;-82
2021/08/18 17:58:16;;;;;;;2.40;2.20;;;21.30;99.90;;;;;;10511852;28;20291;-82
2021/08/18 18:03:20;;;;;;;2.70;2.53;;;21.20;99.90;;;;;;10468362;28;20196;-82
2021/08/18 18:08:22;;;;;;;2.67;2.47;;;21.20;99.90;;;;;;10484547;28;20632;-82
2021/08/18 18:13:26;;;;;;;2.47;2.37;;;21.10;99.90;;;;;;10469383;28;20228;-82
2021/08/18 18:18:28;;;;;;;2.70;2.50;;;21.10;99.90;;;;;;10468507;28;20304;-82
2021/08/18 18:23:31;;;;;;;2.73;2.53;;;21.00;99.90;;;;;;10485551;28;20227;-82
2021/08/18 18:28:35;;;;;;;2.73;2.53;;;21.00;99.90;;;;;;10466539;28;20229;-82
2021/08/18 18:33:37;;;;;;;3.30;3.10;;;20.90;99.90;;;;;;10463641;28;20220;-82
2021/08/18 18:38:39;;;;;;;3.23;3.03;;;20.90;99.90;;;;;;10460939;28;20213;-82
2021/08/18 18:43:43;;;;;;;2.80;2.60;;;20.90;99.90;;;;;;10447603;28;20572;-82
2021/08/18 18:48:45;;;;;;;6.20;3.13;;;20.90;99.90;;;;;;10486599;28;20619;-82
2021/08/18 18:53:47;;;;;;;2.83;2.70;;;20.80;99.90;;;;;;10470149;28;20229;-82
2021/08/18 18:58:50;;;;;;;2.97;2.77;;;20.80;99.90;;;;;;10486385;28;20247;-82
2021/08/18 19:03:52;;;;;;;2.70;2.60;;;20.80;99.90;;;;;;10474198;28;20203;-82
2021/08/18 19:08:56;;;;;;;2.07;1.87;;;20.70;99.90;;;;;;10491372;28;20771;-82
2021/08/18 19:13:59;;;;;;;2.23;2.13;;;20.70;99.90;;;;;;10489682;28;20195;-82
2021/08/18 19:19:01;;;;;;;3.10;2.90;;;20.70;99.90;;;;;;10490627;28;20205;-82
2021/08/18 19:24:04;;;;;;;2.50;2.40;;;20.60;99.90;;;;;;10490280;28;20283;-82
2021/08/18 19:29:08;;;;;;;2.93;2.57;;;20.60;99.90;;;;;;10465970;28;20229;-82
2021/08/18 19:34:10;;;;;;;2.77;2.60;;;20.50;99.90;;;;;;10514877;28;20192;-82
2021/08/18 19:39:13;;;;;;;3.20;2.93;;;20.50;99.90;;;;;;10533950;28;20200;-82
2021/08/18 19:44:17;;;;;;;2.93;2.73;;;20.50;99.90;;;;;;10550069;28;20199;-82
2021/08/18 19:49:19;;;;;;;2.77;2.57;;;20.50;99.90;;;;;;10533852;28;20224;-82
2021/08/18 19:54:21;;;;;;;2.80;2.60;;;20.40;99.90;;;;;;10502283;28;20672;-81
2021/08/18 19:59:25;;;;;;;3.60;3.30;;;20.40;99.90;;;;;;10486721;28;20241;-82
2021/08/18 20:04:28;;;;;;;3.63;3.20;;;20.40;99.90;;;;;;10457987;28;20202;-82
2021/08/18 20:09:30;;;;;;;4.00;3.70;;;20.30;99.90;;;;;;10454042;28;20245;-82
2021/08/18 20:14:34;;;;;;;4.13;2.93;;;20.30;99.90;;;;;;10453306;28;20206;-82
2021/08/18 20:19:36;;;;;;;2.70;2.50;;;20.20;99.90;;;;;;10454019;28;20256;-81
2021/08/18 20:24:38;;;;;;;3.93;3.73;;;20.10;99.90;;;;;;10481615;28;20283;-81
2021/08/18 20:29:42;;;;;;;3.80;3.50;;;20.10;99.90;;;;;;10518380;28;20243;-82
2021/08/18 20:34:44;;;;;;;3.77;3.47;;;20.10;99.90;;;;;;10478183;28;20197;-81
2021/08/18 20:39:46;;;;;;;3.67;2.80;;;19.90;99.90;;;;;;10495655;28;20220;-82
2021/08/18 20:44:52;;;;;;;3.27;3.00;;;19.90;99.90;;;;;;10478439;28;20295;-82
2021/08/18 20:49:54;;;;;;;3.33;2.40;;;19.90;99.90;;;;;;10520961;28;20262;-81
2021/08/18 20:54:56;;;;;;;2.87;2.67;;;19.90;99.90;;;;;;10531337;28;20196;-81
2021/08/18 21:00:00;;;;;;;2.93;2.73;;;19.90;99.90;;;;;;10543884;28;20611;-81
2021/08/18 21:05:09;;;;;;;2.30;2.10;;;19.80;99.90;;;;;;10527778;28;20230;-82
2021/08/18 21:10:11;;;;;;;2.30;2.13;;;19.80;99.90;;;;;;10511432;28;20224;-81
2021/08/18 21:15:14;;;;;;;2.87;2.67;;;19.70;99.90;;;;;;10518103;28;20192;-81
2021/08/18 21:20:16;;;;;;;2.53;2.33;;;19.70;99.90;;;;;;10491339;28;20286;-82
2021/08/18 21:25:19;;;;;;;2.43;2.33;;;19.70;99.90;;;;;;10509618;28;20590;-82
2021/08/18 21:30:25;;;;;;;2.30;2.20;;;19.70;99.90;;;;;;10506348;28;20209;-82
2021/08/18 21:35:27;;;;;;;2.50;2.30;;;19.70;99.90;;;;;;10456117;28;20221;-82
2021/08/18 21:40:30;;;;;;;2.50;2.30;;;19.70;99.90;;;;;;10470978;28;20280;-82
2021/08/18 21:45:34;;;;;;;2.70;2.60;;;19.70;99.90;;;;;;10488469;28;20221;-82
2021/08/18 21:50:36;;;;;;;2.57;2.40;;;19.70;99.90;;;;;;10461635;28;20225;-82
2021/08/18 21:55:39;;;;;;;2.53;2.43;;;19.70;99.90;;;;;;10465012;28;20712;-82
2021/08/18 22:00:42;;;;;;;2.83;2.63;;;19.80;99.90;;;;;;10464482;28;20628;-82
2021/08/18 22:05:46;;;;;;;2.47;2.37;;;19.80;99.90;;;;;;10479904;28;20669;-82
2021/08/18 22:10:49;;;;;;;2.30;2.10;;;19.80;99.90;;;;;;10478579;28;20303;-82
2021/08/18 22:15:52;;;;;;;2.10;2.00;;;19.80;99.90;;;;;;10468609;28;20207;-82
2021/08/18 22:20:54;;;;;;;2.10;2.00;;;19.90;99.90;;;;;;10468124;28;20227;-82
2021/08/18 22:25:56;;;;;;;2.80;2.70;;;19.90;99.90;;;;;;10462410;28;20531;-82
2021/08/18 22:31:00;;;;;;;2.50;2.40;;;19.90;99.90;;;;;;10481254;28;20504;-82
2021/08/18 22:36:02;;;;;;;2.87;2.67;;;19.90;99.90;;;;;;10490056;28;20201;-82
2021/08/18 22:41:04;;;;;;;2.80;2.70;;;19.90;99.90;;;;;;10486087;28;20670;-82
2021/08/18 22:46:08;;;;;;;2.20;2.10;;;19.90;99.90;;;;;;10494161;28;20212;-82
2021/08/18 22:51:11;;;;;;;2.20;2.10;;;19.90;99.90;;;;;;10531087;28;20656;-82
2021/08/18 22:56:13;;;;;;;2.23;2.13;;;19.80;99.90;;;;;;10532024;28;20210;-82
2021/08/18 23:01:16;;;;;;;2.53;2.43;;;19.80;99.90;;;;;;10487060;28;20197;-82
2021/08/18 23:06:18;;;;;;;2.33;2.20;;;19.80;99.90;;;;;;10474216;28;20303;-82
2021/08/18 23:11:20;;;;;;;2.40;2.20;;;19.80;99.90;;;;;;10475181;28;20197;-82
2021/08/18 23:16:24;;;;;;;2.80;1.87;;;19.80;99.90;;;;;;10476633;28;20197;-82
2021/08/18 23:21:26;;;;;;;2.10;2.00;;;19.90;99.90;;;;;;10489296;28;20204;-82
2021/08/18 23:26:28;;;;;;;2.20;2.10;;;19.80;99.90;;;;;;10489446;28;20220;-82
2021/08/18 23:31:32;;;;;;;2.93;1.90;;;19.80;99.90;;;;;;10490394;28;20197;-83
2021/08/18 23:36:34;;;;;;;2.30;2.10;;;19.80;99.90;;;;;;10493643;28;20262;-83
2021/08/18 23:41:36;;;;;;;2.07;1.97;;;19.80;99.90;;;;;;10515730;28;20556;-82
2021/08/18 23:46:40;;;;;;;1.90;1.80;;;19.80;99.90;;;;;;10517630;28;20315;-83
2021/08/18 23:51:42;;;;;;;2.30;2.10;;;19.80;99.90;;;;;;10525866;28;20636;-82
2021/08/18 23:56:45;;;;;;;2.00;1.90;;;19.80;99.90;;;;;;10525660;28;20219;-83
